sensor_id;sensor_type;location;lat;lon;timestamp;pressure;altitude;pressure_sealevel;temperature;humidity
11682;BME280;5897;42.640;23.310;2023-04-12T00:02:04;93029.91;;;9.22;81.31
11682;BME280;5897;42.640;23.310;2023-04-12T00:04:31;93025.38;;;9.19;82.01
11682;BME280;5897;42.640;23.310;2023-04-12T00:07:00;93019.56;;;9.20;82.05
11682;BME280;5897;42.640;23.310;2023-04-12T00:09:27;93018.50;;;9.18;82.07
11682;BME280;5897;42.640;23.310;2023-04-12T00:11:55;93024.94;;;9.20;82.22
11682;BME280;5897;42.640;23.310;2023-04-12T00:14:22;93028.28;;;9.24;82.14
11682;BME280;5897;42.640;23.310;2023-04-12T00:16:50;93014.91;;;9.21;82.22
11682;BME280;5897;42.640;23.310;2023-04-12T00:19:17;93009.63;;;9.17;82.83
11682;BME280;5897;42.640;23.310;2023-04-12T00:21:44;92993.44;;;9.08;82.19
11682;BME280;5897;42.640;23.310;2023-04-12T00:24:11;93010.91;;;9.25;81.98
11682;BME280;5897;42.640;23.310;2023-04-12T00:26:38;93001.75;;;9.23;81.76
11682;BME280;5897;42.640;23.310;2023-04-12T00:29:05;93006.38;;;9.22;82.05
11682;BME280;5897;42.640;23.310;2023-04-12T00:31:32;93008.78;;;9.20;82.00
11682;BME280;5897;42.640;23.310;2023-04-12T00:34:00;93015.97;;;9.23;81.88
11682;BME280;5897;42.640;23.310;2023-04-12T00:36:27;93008.22;;;9.25;82.32
11682;BME280;5897;42.640;23.310;2023-04-12T00:38:54;93001.75;;;9.23;82.52
11682;BME280;5897;42.640;23.310;2023-04-12T00:41:21;93005.19;;;9.23;82.57
11682;BME280;5897;42.640;23.310;2023-04-12T00:43:48;93007.44;;;9.25;81.84
11682;BME280;5897;42.640;23.310;2023-04-12T00:46:16;93001.75;;;9.23;82.19
11682;BME280;5897;42.640;23.310;2023-04-12T00:48:44;93009.09;;;9.22;81.99
11682;BME280;5897;42.640;23.310;2023-04-12T00:51:14;93003.38;;;9.20;82.55
11682;BME280;5897;42.640;23.310;2023-04-12T00:53:42;93001.13;;;9.19;82.73
11682;BME280;5897;42.640;23.310;2023-04-12T00:56:10;93005.53;;;9.25;82.15
11682;BME280;5897;42.640;23.310;2023-04-12T00:58:37;93001.13;;;9.19;82.61
11682;BME280;5897;42.640;23.310;2023-04-12T01:01:04;93003.06;;;9.18;82.57
11682;BME280;5897;42.640;23.310;2023-04-12T01:03:31;92992.88;;;9.13;82.68
11682;BME280;5897;42.640;23.310;2023-04-12T01:06:06;93001.25;;;9.15;82.54
11682;BME280;5897;42.640;23.310;2023-04-12T01:08:44;92991.09;;;9.19;82.47
11682;BME280;5897;42.640;23.310;2023-04-12T01:11:23;92996.28;;;9.14;83.06
11682;BME280;5897;42.640;23.310;2023-04-12T01:13:57;92999.88;;;9.11;82.58
11682;BME280;5897;42.640;23.310;2023-04-12T01:16:30;92987.34;;;9.17;81.95
11682;BME280;5897;42.640;23.310;2023-04-12T01:19:03;92984.19;;;9.18;81.91
11682;BME280;5897;42.640;23.310;2023-04-12T01:21:41;92979.25;;;9.17;81.71
11682;BME280;5897;42.640;23.310;2023-04-12T01:24:23;92982.69;;;9.17;82.20
11682;BME280;5897;42.640;23.310;2023-04-12T01:26:54;92978.94;;;9.15;81.48
11682;BME280;5897;42.640;23.310;2023-04-12T01:29:28;92981.47;;;9.09;81.95
11682;BME280;5897;42.640;23.310;2023-04-12T01:31:58;92982.41;;;9.15;81.73
11682;BME280;5897;42.640;23.310;2023-04-12T01:34:28;92974.44;;;9.12;81.78
11682;BME280;5897;42.640;23.310;2023-04-12T01:36:57;92980.56;;;9.12;81.66
11682;BME280;5897;42.640;23.310;2023-04-12T01:39:25;92982.25;;;9.19;81.30
11682;BME280;5897;42.640;23.310;2023-04-12T01:41:52;92973.53;;;9.15;81.68
11682;BME280;5897;42.640;23.310;2023-04-12T01:44:19;92978.34;;;9.11;81.71
11682;BME280;5897;42.640;23.310;2023-04-12T01:46:47;92968.94;;;8.94;82.11
11682;BME280;5897;42.640;23.310;2023-04-12T01:49:16;92977.13;;;9.12;82.19
11682;BME280;5897;42.640;23.310;2023-04-12T01:51:50;92986.72;;;9.13;82.45
11682;BME280;5897;42.640;23.310;2023-04-12T01:54:21;92977.00;;;9.15;81.81
11682;BME280;5897;42.640;23.310;2023-04-12T01:56:53;92976.81;;;9.10;81.97
11682;BME280;5897;42.640;23.310;2023-04-12T01:59:22;92981.47;;;9.09;82.15
11682;BME280;5897;42.640;23.310;2023-04-12T02:01:53;92978.75;;;9.09;81.84
11682;BME280;5897;42.640;23.310;2023-04-12T02:04:21;92978.94;;;9.15;81.49
11682;BME280;5897;42.640;23.310;2023-04-12T02:06:49;92972.47;;;9.12;81.39
11682;BME280;5897;42.640;23.310;2023-04-12T02:09:16;92982.41;;;9.15;81.19
11682;BME280;5897;42.640;23.310;2023-04-12T02:11:45;92965.94;;;9.13;81.21
11682;BME280;5897;42.640;23.310;2023-04-12T02:14:13;92944.13;;;8.99;80.88
11682;BME280;5897;42.640;23.310;2023-04-12T02:16:40;92964.84;;;9.11;81.34
11682;BME280;5897;42.640;23.310;2023-04-12T02:19:10;92977.13;;;9.12;81.50
11682;BME280;5897;42.640;23.310;2023-04-12T02:21:40;92962.03;;;9.14;81.55
11682;BME280;5897;42.640;23.310;2023-04-12T02:24:07;92962.91;;;9.11;81.65
11682;BME280;5897;42.640;23.310;2023-04-12T02:26:34;92957.94;;;9.10;82.18
11682;BME280;5897;42.640;23.310;2023-04-12T02:29:02;92968.16;;;9.15;82.54
11682;BME280;5897;42.640;23.310;2023-04-12T02:31:31;92962.97;;;9.20;85.86
11682;BME280;5897;42.640;23.310;2023-04-12T02:33:58;92964.47;;;9.21;82.81
11682;BME280;5897;42.640;23.310;2023-04-12T02:36:27;92971.56;;;9.28;83.61
11682;BME280;5897;42.640;23.310;2023-04-12T02:38:54;92961.38;;;9.32;83.83
11682;BME280;5897;42.640;23.310;2023-04-12T02:41:21;92960.50;;;9.35;82.77
11682;BME280;5897;42.640;23.310;2023-04-12T02:43:49;92949.84;;;9.31;83.21
11682;BME280;5897;42.640;23.310;2023-04-12T02:46:19;92954.63;;;9.27;81.33
11682;BME280;5897;42.640;23.310;2023-04-12T02:48:46;92953.84;;;9.27;82.62
11682;BME280;5897;42.640;23.310;2023-04-12T02:51:13;92954.75;;;9.24;81.81
11682;BME280;5897;42.640;23.310;2023-04-12T02:53:41;92949.38;;;9.24;83.04
11682;BME280;5897;42.640;23.310;2023-04-12T02:56:08;92962.34;;;9.16;81.04
11682;BME280;5897;42.640;23.310;2023-04-12T02:58:35;92955.25;;;9.10;81.38
11682;BME280;5897;42.640;23.310;2023-04-12T03:01:03;92958.28;;;9.12;81.14
11682;BME280;5897;42.640;23.310;2023-04-12T03:03:32;92951.38;;;9.11;81.57
11682;BME280;5897;42.640;23.310;2023-04-12T03:06:00;92975.19;;;9.12;81.73
11682;BME280;5897;42.640;23.310;2023-04-12T03:08:26;92962.78;;;9.15;82.03
11682;BME280;5897;42.640;23.310;2023-04-12T03:10:55;92950.06;;;9.15;82.54
11682;BME280;5897;42.640;23.310;2023-04-12T03:13:22;92954.69;;;9.15;83.13
11682;BME280;5897;42.640;23.310;2023-04-12T03:15:54;92937.97;;;9.20;83.31
11682;BME280;5897;42.640;23.310;2023-04-12T03:18:22;92954.88;;;9.20;83.78
11682;BME280;5897;42.640;23.310;2023-04-12T03:20:49;92944.59;;;9.28;83.43
11682;BME280;5897;42.640;23.310;2023-04-12T03:23:17;92944.91;;;9.30;83.79
11682;BME280;5897;42.640;23.310;2023-04-12T03:25:44;92952.50;;;9.22;83.76
11682;BME280;5897;42.640;23.310;2023-04-12T03:28:12;92951.78;;;9.31;83.64
11682;BME280;5897;42.640;23.310;2023-04-12T03:30:39;92947.72;;;9.26;83.50
11682;BME280;5897;42.640;23.310;2023-04-12T03:33:06;92951.66;;;9.34;83.60
11682;BME280;5897;42.640;23.310;2023-04-12T03:35:32;92954.34;;;9.34;82.85
11682;BME280;5897;42.640;23.310;2023-04-12T03:37:59;92949.84;;;9.31;82.16
11682;BME280;5897;42.640;23.310;2023-04-12T03:40:26;92959.75;;;9.34;82.05
11682;BME280;5897;42.640;23.310;2023-04-12T03:42:53;92965.28;;;9.31;81.76
11682;BME280;5897;42.640;23.310;2023-04-12T03:45:21;92957.63;;;9.29;81.45
11682;BME280;5897;42.640;23.310;2023-04-12T03:47:48;92968.41;;;9.29;81.70
11682;BME280;5897;42.640;23.310;2023-04-12T03:50:15;92968.84;;;9.28;81.32
11682;BME280;5897;42.640;23.310;2023-04-12T03:52:41;92973.78;;;9.29;81.49
11682;BME280;5897;42.640;23.310;2023-04-12T03:55:08;92974.19;;;9.19;82.42
11682;BME280;5897;42.640;23.310;2023-04-12T03:57:36;92971.47;;;9.19;83.14
11682;BME280;5897;42.640;23.310;2023-04-12T04:00:04;92970.25;;;9.11;85.83
11682;BME280;5897;42.640;23.310;2023-04-12T04:02:34;92966.63;;;9.05;86.95
11682;BME280;5897;42.640;23.310;2023-04-12T04:05:01;92973.94;;;9.04;85.46
11682;BME280;5897;42.640;23.310;2023-04-12T04:07:28;92972.44;;;9.03;85.12
11682;BME280;5897;42.640;23.310;2023-04-12T04:09:56;92960.34;;;9.08;84.21
11682;BME280;5897;42.640;23.310;2023-04-12T04:12:23;92979.31;;;9.04;84.45
11682;BME280;5897;42.640;23.310;2023-04-12T04:14:50;92974.88;;;9.10;83.58
11682;BME280;5897;42.640;23.310;2023-04-12T04:17:16;92977.25;;;9.08;82.81
11682;BME280;5897;42.640;23.310;2023-04-12T04:19:44;92981.31;;;9.13;82.52
11682;BME280;5897;42.640;23.310;2023-04-12T04:22:11;92992.22;;;9.09;81.40
11682;BME280;5897;42.640;23.310;2023-04-12T04:24:38;93003.00;;;9.09;82.15
11682;BME280;5897;42.640;23.310;2023-04-12T04:27:04;92998.47;;;9.06;82.53
11682;BME280;5897;42.640;23.310;2023-04-12T04:29:31;93001.72;;;9.01;83.41
11682;BME280;5897;42.640;23.310;2023-04-12T04:31:58;93008.53;;;9.06;82.41
11682;BME280;5897;42.640;23.310;2023-04-12T04:34:25;93002.50;;;9.02;83.02
11682;BME280;5897;42.640;23.310;2023-04-12T04:36:53;93018.22;;;9.03;83.21
11682;BME280;5897;42.640;23.310;2023-04-12T04:39:21;93016.41;;;9.00;83.58
11682;BME280;5897;42.640;23.310;2023-04-12T04:41:48;93026.19;;;9.07;82.90
11682;BME280;5897;42.640;23.310;2023-04-12T04:44:19;93034.06;;;9.01;82.14
11682;BME280;5897;42.640;23.310;2023-04-12T04:46:46;93026.31;;;9.03;81.85
11682;BME280;5897;42.640;23.310;2023-04-12T04:49:13;93018.03;;;8.98;81.16
11682;BME280;5897;42.640;23.310;2023-04-12T04:51:40;93033.56;;;8.94;81.21
11682;BME280;5897;42.640;23.310;2023-04-12T04:54:08;93039.69;;;8.94;80.57
11682;BME280;5897;42.640;23.310;2023-04-12T04:56:35;93040.03;;;8.96;80.46
11682;BME280;5897;42.640;23.310;2023-04-12T04:59:02;93039.56;;;8.98;79.71
11682;BME280;5897;42.640;23.310;2023-04-12T05:01:29;93033.25;;;8.92;78.62
11682;BME280;5897;42.640;23.310;2023-04-12T05:03:56;93044.22;;;8.97;78.71
11682;BME280;5897;42.640;23.310;2023-04-12T05:06:23;93050.81;;;8.96;78.34
11682;BME280;5897;42.640;23.310;2023-04-12T05:08:50;93040.47;;;8.95;78.57
11682;BME280;5897;42.640;23.310;2023-04-12T05:11:19;93041.84;;;8.99;77.63
11682;BME280;5897;42.640;23.310;2023-04-12T05:13:45;93040.66;;;9.00;78.27
11682;BME280;5897;42.640;23.310;2023-04-12T05:16:12;93052.91;;;9.01;77.62
11682;BME280;5897;42.640;23.310;2023-04-12T05:18:39;93051.75;;;9.02;78.14
11682;BME280;5897;42.640;23.310;2023-04-12T05:21:06;93054.56;;;8.99;76.85
11682;BME280;5897;42.640;23.310;2023-04-12T05:23:34;93060.38;;;8.97;76.71
11682;BME280;5897;42.640;23.310;2023-04-12T05:26:01;93059.06;;;9.02;75.83
11682;BME280;5897;42.640;23.310;2023-04-12T05:28:29;93064.28;;;8.96;75.54
11682;BME280;5897;42.640;23.310;2023-04-12T05:30:56;93067.38;;;9.07;74.22
11682;BME280;5897;42.640;23.310;2023-04-12T05:33:23;93063.78;;;9.10;73.88
11682;BME280;5897;42.640;23.310;2023-04-12T05:35:50;93062.84;;;9.04;72.72
11682;BME280;5897;42.640;23.310;2023-04-12T05:38:17;93055.59;;;9.01;72.50
11682;BME280;5897;42.640;23.310;2023-04-12T05:40:44;93060.63;;;8.90;72.36
11682;BME280;5897;42.640;23.310;2023-04-12T05:43:11;93078.81;;;8.99;72.28
11682;BME280;5897;42.640;23.310;2023-04-12T05:45:39;93054.47;;;8.90;72.20
11682;BME280;5897;42.640;23.310;2023-04-12T05:48:06;93064.31;;;8.84;73.18
11682;BME280;5897;42.640;23.310;2023-04-12T05:50:33;93056.75;;;8.91;71.69
11682;BME280;5897;42.640;23.310;2023-04-12T05:53:00;93060.69;;;8.99;70.78
11682;BME280;5897;42.640;23.310;2023-04-12T05:55:27;93052.06;;;9.04;69.71
11682;BME280;5897;42.640;23.310;2023-04-12T05:57:53;93060.00;;;9.08;69.66
11682;BME280;5897;42.640;23.310;2023-04-12T06:00:20;93060.00;;;9.08;69.73
11682;BME280;5897;42.640;23.310;2023-04-12T06:02:49;93073.78;;;9.10;68.69
11682;BME280;5897;42.640;23.310;2023-04-12T06:05:16;93090.44;;;8.96;68.56
11682;BME280;5897;42.640;23.310;2023-04-12T06:07:43;93090.69;;;8.89;69.61
11682;BME280;5897;42.640;23.310;2023-04-12T06:10:14;93066.94;;;8.62;71.09
11682;BME280;5897;42.640;23.310;2023-04-12T06:12:41;93083.53;;;8.61;71.67
11682;BME280;5897;42.640;23.310;2023-04-12T06:15:08;93099.03;;;8.69;71.50
11682;BME280;5897;42.640;23.310;2023-04-12T06:17:36;93078.88;;;8.61;76.49
11682;BME280;5897;42.640;23.310;2023-04-12T06:20:05;93107.94;;;8.66;72.51
11682;BME280;5897;42.640;23.310;2023-04-12T06:22:33;93072.47;;;8.46;72.40
11682;BME280;5897;42.640;23.310;2023-04-12T06:25:00;93105.19;;;8.57;73.56
11682;BME280;5897;42.640;23.310;2023-04-12T06:27:27;93098.59;;;8.58;74.34
11682;BME280;5897;42.640;23.310;2023-04-12T06:29:54;93099.13;;;8.66;75.90
11682;BME280;5897;42.640;23.310;2023-04-12T06:32:21;93089.34;;;8.59;75.75
11682;BME280;5897;42.640;23.310;2023-04-12T06:34:48;93098.06;;;8.63;74.81
11682;BME280;5897;42.640;23.310;2023-04-12T06:37:16;93090.06;;;8.72;74.57
11682;BME280;5897;42.640;23.310;2023-04-12T06:39:43;93093.16;;;8.83;74.23
11682;BME280;5897;42.640;23.310;2023-04-12T06:42:10;93089.72;;;8.83;73.00
11682;BME280;5897;42.640;23.310;2023-04-12T06:44:37;93094.44;;;8.91;72.45
11682;BME280;5897;42.640;23.310;2023-04-12T06:47:04;93095.84;;;8.96;73.23
11682;BME280;5897;42.640;23.310;2023-04-12T06:49:30;93088.91;;;9.07;73.09
11682;BME280;5897;42.640;23.310;2023-04-12T06:51:57;93092.09;;;9.15;72.08
11682;BME280;5897;42.640;23.310;2023-04-12T06:54:26;93095.56;;;9.15;72.09
11682;BME280;5897;42.640;23.310;2023-04-12T06:56:52;93086.66;;;9.06;71.88
11682;BME280;5897;42.640;23.310;2023-04-12T06:59:20;93079.19;;;9.10;72.32
11682;BME280;5897;42.640;23.310;2023-04-12T07:01:47;93085.09;;;9.17;72.04
11682;BME280;5897;42.640;23.310;2023-04-12T07:04:14;93077.22;;;9.23;70.86
11682;BME280;5897;42.640;23.310;2023-04-12T07:06:41;93081.28;;;9.27;71.55
11682;BME280;5897;42.640;23.310;2023-04-12T07:09:07;93089.38;;;9.27;71.18
11682;BME280;5897;42.640;23.310;2023-04-12T07:11:36;93079.84;;;9.35;70.78
11682;BME280;5897;42.640;23.310;2023-04-12T07:14:02;93078.44;;;9.52;70.24
11682;BME280;5897;42.640;23.310;2023-04-12T07:16:29;93086.22;;;9.72;69.88
11682;BME280;5897;42.640;23.310;2023-04-12T07:18:58;93083.72;;;9.77;67.97
11682;BME280;5897;42.640;23.310;2023-04-12T07:21:24;93088.47;;;9.73;67.79
11682;BME280;5897;42.640;23.310;2023-04-12T07:23:51;93089.47;;;9.67;68.54
11682;BME280;5897;42.640;23.310;2023-04-12T07:26:18;93087.19;;;9.56;68.81
11682;BME280;5897;42.640;23.310;2023-04-12T07:28:47;93095.97;;;9.48;69.30
11682;BME280;5897;42.640;23.310;2023-04-12T07:31:14;93095.31;;;9.44;69.90
11682;BME280;5897;42.640;23.310;2023-04-12T07:33:40;93085.13;;;9.39;70.03
11682;BME280;5897;42.640;23.310;2023-04-12T07:36:08;93083.13;;;9.30;69.41
11682;BME280;5897;42.640;23.310;2023-04-12T07:38:34;93070.88;;;9.38;69.38
11682;BME280;5897;42.640;23.310;2023-04-12T07:41:01;93078.06;;;9.41;69.44
11682;BME280;5897;42.640;23.310;2023-04-12T07:43:28;93074.75;;;9.59;68.66
11682;BME280;5897;42.640;23.310;2023-04-12T07:45:57;93063.22;;;9.80;68.45
11682;BME280;5897;42.640;23.310;2023-04-12T07:48:28;93066.53;;;10.05;67.96
11682;BME280;5897;42.640;23.310;2023-04-12T07:50:55;93072.50;;;10.40;65.90
11682;BME280;5897;42.640;23.310;2023-04-12T07:53:23;93073.69;;;10.39;64.47
11682;BME280;5897;42.640;23.310;2023-04-12T07:55:51;93074.59;;;10.36;63.28
11682;BME280;5897;42.640;23.310;2023-04-12T07:58:19;93070.34;;;10.26;63.98
11682;BME280;5897;42.640;23.310;2023-04-12T08:00:46;93057.56;;;10.17;64.56
11682;BME280;5897;42.640;23.310;2023-04-12T08:03:15;93050.84;;;10.22;64.19
11682;BME280;5897;42.640;23.310;2023-04-12T08:05:43;93049.19;;;10.24;64.04
11682;BME280;5897;42.640;23.310;2023-04-12T08:08:11;93040.81;;;10.22;63.82
11682;BME280;5897;42.640;23.310;2023-04-12T08:10:38;93036.72;;;10.18;62.89
11682;BME280;5897;42.640;23.310;2023-04-12T08:13:06;93026.34;;;10.07;62.01
11682;BME280;5897;42.640;23.310;2023-04-12T08:15:33;93033.19;;;10.30;57.34
11682;BME280;5897;42.640;23.310;2023-04-12T08:18:00;93034.34;;;10.20;53.90
11682;BME280;5897;42.640;23.310;2023-04-12T08:20:28;93035.88;;;9.99;53.46
11682;BME280;5897;42.640;23.310;2023-04-12T08:22:56;93037.38;;;10.00;55.38
11682;BME280;5897;42.640;23.310;2023-04-12T08:25:22;93023.16;;;10.39;54.54
11682;BME280;5897;42.640;23.310;2023-04-12T08:27:50;93035.81;;;10.69;54.59
11682;BME280;5897;42.640;23.310;2023-04-12T08:30:17;93022.47;;;11.20;53.54
11682;BME280;5897;42.640;23.310;2023-04-12T08:32:44;93030.44;;;11.23;52.13
11682;BME280;5897;42.640;23.310;2023-04-12T08:35:11;93026.22;;;11.49;51.46
11682;BME280;5897;42.640;23.310;2023-04-12T08:37:39;93031.00;;;11.72;51.17
11682;BME280;5897;42.640;23.310;2023-04-12T08:40:07;93034.16;;;11.80;50.93
11682;BME280;5897;42.640;23.310;2023-04-12T08:42:34;93021.16;;;12.02;50.04
11682;BME280;5897;42.640;23.310;2023-04-12T08:45:05;93029.66;;;12.18;48.84
11682;BME280;5897;42.640;23.310;2023-04-12T08:47:32;93032.34;;;12.27;48.50
11682;BME280;5897;42.640;23.310;2023-04-12T08:50:00;93022.47;;;12.15;49.04
11682;BME280;5897;42.640;23.310;2023-04-12T08:52:27;93025.84;;;12.33;48.41
11682;BME280;5897;42.640;23.310;2023-04-12T08:54:56;93022.44;;;12.24;46.93
11682;BME280;5897;42.640;23.310;2023-04-12T08:57:23;93014.66;;;12.08;46.03
11682;BME280;5897;42.640;23.310;2023-04-12T08:59:52;93032.50;;;11.82;46.09
11682;BME280;5897;42.640;23.310;2023-04-12T09:02:20;93031.06;;;11.63;46.79
11682;BME280;5897;42.640;23.310;2023-04-12T09:04:47;93043.50;;;11.43;47.48
11682;BME280;5897;42.640;23.310;2023-04-12T09:07:14;93025.47;;;11.40;47.71
11682;BME280;5897;42.640;23.310;2023-04-12T09:09:42;93027.28;;;11.34;47.66
11682;BME280;5897;42.640;23.310;2023-04-12T09:12:11;93026.38;;;11.37;48.42
11682;BME280;5897;42.640;23.310;2023-04-12T09:14:39;93019.28;;;11.57;48.48
11682;BME280;5897;42.640;23.310;2023-04-12T09:17:21;93018.94;;;11.91;47.23
11682;BME280;5897;42.640;23.310;2023-04-12T09:19:48;93018.38;;;11.78;46.00
11682;BME280;5897;42.640;23.310;2023-04-12T09:22:14;93024.72;;;11.66;45.65
11682;BME280;5897;42.640;23.310;2023-04-12T09:24:45;93003.19;;;12.22;46.54
11682;BME280;5897;42.640;23.310;2023-04-12T09:27:14;93017.06;;;12.47;44.54
11682;BME280;5897;42.640;23.310;2023-04-12T09:29:41;93006.69;;;12.69;43.95
11682;BME280;5897;42.640;23.310;2023-04-12T09:32:10;92991.69;;;13.06;43.01
11682;BME280;5897;42.640;23.310;2023-04-12T09:34:36;93000.31;;;13.72;42.87
11682;BME280;5897;42.640;23.310;2023-04-12T09:37:12;93002.34;;;14.06;39.38
11682;BME280;5897;42.640;23.310;2023-04-12T09:39:40;92989.81;;;14.57;39.74
11682;BME280;5897;42.640;23.310;2023-04-12T09:42:09;92986.66;;;14.79;38.48
11682;BME280;5897;42.640;23.310;2023-04-12T09:44:38;92985.56;;;15.11;38.81
11682;BME280;5897;42.640;23.310;2023-04-12T09:47:05;92970.41;;;15.04;37.10
11682;BME280;5897;42.640;23.310;2023-04-12T09:49:36;92958.63;;;15.33;37.32
11682;BME280;5897;42.640;23.310;2023-04-12T09:52:04;92967.72;;;15.50;36.56
11682;BME280;5897;42.640;23.310;2023-04-12T09:54:34;92960.34;;;15.56;35.99
11682;BME280;5897;42.640;23.310;2023-04-12T09:57:04;92956.72;;;15.39;35.67
11682;BME280;5897;42.640;23.310;2023-04-12T09:59:35;92939.63;;;15.64;36.06
11682;BME280;5897;42.640;23.310;2023-04-12T10:02:06;92942.00;;;15.51;36.52
11682;BME280;5897;42.640;23.310;2023-04-12T10:04:36;92936.19;;;15.18;34.05
11682;BME280;5897;42.640;23.310;2023-04-12T10:07:05;92952.34;;;15.47;32.86
11682;BME280;5897;42.640;23.310;2023-04-12T10:09:32;92947.31;;;15.65;29.54
11682;BME280;5897;42.640;23.310;2023-04-12T10:12:00;92935.38;;;15.12;30.48
11682;BME280;5897;42.640;23.310;2023-04-12T10:14:28;92943.81;;;15.34;31.19
11682;BME280;5897;42.640;23.310;2023-04-12T10:16:55;92942.69;;;15.46;28.46
11682;BME280;5897;42.640;23.310;2023-04-12T10:19:25;92933.25;;;15.21;28.20
11682;BME280;5897;42.640;23.310;2023-04-12T10:21:53;92938.63;;;15.16;29.46
11682;BME280;5897;42.640;23.310;2023-04-12T10:24:21;92929.34;;;14.82;29.98
11682;BME280;5897;42.640;23.310;2023-04-12T10:26:49;92924.63;;;15.23;30.01
11682;BME280;5897;42.640;23.310;2023-04-12T10:29:25;92918.28;;;15.57;30.33
11682;BME280;5897;42.640;23.310;2023-04-12T10:31:52;92900.88;;;15.49;30.01
11682;BME280;5897;42.640;23.310;2023-04-12T10:34:25;92904.41;;;15.55;30.39
11682;BME280;5897;42.640;23.310;2023-04-12T10:36:53;92908.25;;;15.43;30.70
11682;BME280;5897;42.640;23.310;2023-04-12T10:39:37;92903.97;;;15.62;30.57
11682;BME280;5897;42.640;23.310;2023-04-12T10:42:21;92906.66;;;15.56;30.24
11682;BME280;5897;42.640;23.310;2023-04-12T10:44:49;92909.94;;;15.66;30.19
11682;BME280;5897;42.640;23.310;2023-04-12T10:50:23;92922.19;;;16.12;27.32
11682;BME280;5897;42.640;23.310;2023-04-12T10:53:21;92903.66;;;16.16;28.23
11682;BME280;5897;42.640;23.310;2023-04-12T10:55:50;92899.22;;;16.24;28.12
11682;BME280;5897;42.640;23.310;2023-04-12T10:58:54;92915.28;;;16.17;27.46
11682;BME280;5897;42.640;23.310;2023-04-12T11:01:21;92891.22;;;15.48;27.43
11682;BME280;5897;42.640;23.310;2023-04-12T11:04:04;92876.31;;;15.18;28.02
11682;BME280;5897;42.640;23.310;2023-04-12T11:06:57;92905.00;;;14.93;27.31
11682;BME280;5897;42.640;23.310;2023-04-12T11:09:28;92908.94;;;14.72;28.05
11682;BME280;5897;42.640;23.310;2023-04-12T11:12:11;92916.28;;;15.32;27.00
11682;BME280;5897;42.640;23.310;2023-04-12T11:14:42;92904.50;;;15.66;24.95
11682;BME280;5897;42.640;23.310;2023-04-12T11:17:23;92911.00;;;15.74;23.70
11682;BME280;5897;42.640;23.310;2023-04-12T11:19:52;92880.63;;;16.17;24.19
11682;BME280;5897;42.640;23.310;2023-04-12T11:22:22;92910.75;;;16.03;23.93
11682;BME280;5897;42.640;23.310;2023-04-12T11:24:50;92914.56;;;16.58;23.47
11682;BME280;5897;42.640;23.310;2023-04-12T11:27:19;92918.19;;;16.39;23.45
11682;BME280;5897;42.640;23.310;2023-04-12T11:29:48;92899.16;;;16.50;22.95
11682;BME280;5897;42.640;23.310;2023-04-12T11:32:15;92894.47;;;16.14;23.27
11682;BME280;5897;42.640;23.310;2023-04-12T11:34:44;92888.97;;;16.08;23.86
11682;BME280;5897;42.640;23.310;2023-04-12T11:37:11;92914.78;;;15.51;23.27
11682;BME280;5897;42.640;23.310;2023-04-12T11:39:41;92899.28;;;15.37;24.98
11682;BME280;5897;42.640;23.310;2023-04-12T11:42:12;92912.28;;;14.82;24.08
11682;BME280;5897;42.640;23.310;2023-04-12T11:44:40;92902.38;;;14.59;24.15
11682;BME280;5897;42.640;23.310;2023-04-12T11:47:12;92912.03;;;15.05;24.41
11682;BME280;5897;42.640;23.310;2023-04-12T11:49:42;92903.34;;;15.78;24.05
11682;BME280;5897;42.640;23.310;2023-04-12T11:52:09;92902.47;;;15.92;23.60
11682;BME280;5897;42.640;23.310;2023-04-12T11:54:37;92905.38;;;16.14;24.21
11682;BME280;5897;42.640;23.310;2023-04-12T11:57:05;92893.09;;;16.35;23.03
11682;BME280;5897;42.640;23.310;2023-04-12T11:59:32;92901.63;;;16.48;22.24
11682;BME280;5897;42.640;23.310;2023-04-12T12:02:00;92897.03;;;15.92;23.23
11682;BME280;5897;42.640;23.310;2023-04-12T12:04:27;92897.25;;;16.25;25.18
11682;BME280;5897;42.640;23.310;2023-04-12T12:06:55;92907.81;;;16.43;22.92
11682;BME280;5897;42.640;23.310;2023-04-12T12:09:22;92884.66;;;16.33;23.54
11682;BME280;5897;42.640;23.310;2023-04-12T12:11:50;92891.19;;;16.41;24.68
11682;BME280;5897;42.640;23.310;2023-04-12T12:14:19;92892.09;;;16.74;24.42
11682;BME280;5897;42.640;23.310;2023-04-12T12:16:51;92886.25;;;16.45;23.32
11682;BME280;5897;42.640;23.310;2023-04-12T12:19:29;92878.41;;;16.21;24.46
11682;BME280;5897;42.640;23.310;2023-04-12T12:22:10;92895.13;;;16.03;24.08
11682;BME280;5897;42.640;23.310;2023-04-12T12:24:37;92894.16;;;16.43;24.99
11682;BME280;5897;42.640;23.310;2023-04-12T12:27:04;92893.38;;;16.37;24.03
11682;BME280;5897;42.640;23.310;2023-04-12T12:29:36;92885.25;;;16.42;24.63
11682;BME280;5897;42.640;23.310;2023-04-12T12:32:09;92877.13;;;16.53;25.22
11682;BME280;5897;42.640;23.310;2023-04-12T12:34:36;92883.72;;;16.94;24.85
11682;BME280;5897;42.640;23.310;2023-04-12T12:37:07;92871.16;;;17.30;25.05
11682;BME280;5897;42.640;23.310;2023-04-12T12:39:34;92897.53;;;17.44;23.80
11682;BME280;5897;42.640;23.310;2023-04-12T12:42:01;92895.53;;;17.39;22.54
11682;BME280;5897;42.640;23.310;2023-04-12T12:44:30;92887.88;;;17.81;23.71
11682;BME280;5897;42.640;23.310;2023-04-12T12:46:59;92896.81;;;17.76;23.77
11682;BME280;5897;42.640;23.310;2023-04-12T12:49:27;92895.44;;;17.11;24.56
11682;BME280;5897;42.640;23.310;2023-04-12T12:51:54;92887.03;;;17.20;24.46
11682;BME280;5897;42.640;23.310;2023-04-12T12:54:21;92898.72;;;17.21;23.85
11682;BME280;5897;42.640;23.310;2023-04-12T12:56:48;92892.38;;;16.82;21.62
11682;BME280;5897;42.640;23.310;2023-04-12T12:59:15;92907.63;;;17.16;22.91
11682;BME280;5897;42.640;23.310;2023-04-12T13:01:42;92884.78;;;17.19;23.09
11682;BME280;5897;42.640;23.310;2023-04-12T13:04:10;92897.50;;;17.33;23.43
11682;BME280;5897;42.640;23.310;2023-04-12T13:06:37;92900.44;;;17.24;23.97
11682;BME280;5897;42.640;23.310;2023-04-12T13:09:03;92900.28;;;17.60;23.27
11682;BME280;5897;42.640;23.310;2023-04-12T13:11:30;92912.94;;;17.52;23.14
11682;BME280;5897;42.640;23.310;2023-04-12T13:13:57;92899.47;;;17.27;23.97
11682;BME280;5897;42.640;23.310;2023-04-12T13:16:24;92894.66;;;17.05;24.02
11682;BME280;5897;42.640;23.310;2023-04-12T13:18:51;92889.31;;;16.63;24.42